Time;durP1;ratioP1;P1;durP2;ratioP2;P2;SDS_P1;SDS_P2;PMS_P1;PMS_P2;Temp;Humidity;BMP_temperature;BMP_pressure;BME280_temperature;BME280_humidity;BME280_pressure;Samples;Min_cycle;Max_cycle;Signal;HPM_P1;HPM_P2
2023/11/13 00:00:52;;;;;;;;;;;7.30;79.20;;;;;;5114195;28;20008;-70
2023/11/13 00:03:18;;;;;;;;;;;7.30;79.30;;;;;;5101715;28;19968;-70
2023/11/13 00:05:45;;;;;;;;;;;7.30;79.30;;;;;;5093096;28;20375;-69
2023/11/13 00:08:11;;;;;;;;;;;7.30;79.20;;;;;;5104007;28;20277;-69
2023/11/13 00:10:37;;;;;;;;;;;7.20;79.30;;;;;;5112297;28;19968;-69
2023/11/13 00:13:03;;;;;;;;;;;7.20;79.40;;;;;;5114209;28;19919;-70
2023/11/13 00:15:29;;;;;;;;;;;7.20;78.80;;;;;;5113112;28;19927;-68
2023/11/13 00:17:56;;;;;;;;;;;7.10;79.40;;;;;;5112978;28;19915;-70
2023/11/13 00:20:22;;;;;;;;;;;7.20;79.50;;;;;;5113727;27;19918;-68
2023/11/13 00:22:48;;;;;;;;;;;7.10;79.40;;;;;;5114122;28;20020;-68
2023/11/13 00:25:14;;;;;;;;;;;7.10;79.40;;;;;;5113096;28;19916;-69
2023/11/13 00:27:39;;;;;;;;;;;7.10;79.40;;;;;;5113072;28;20378;-68
2023/11/13 00:30:10;;;;;;;;;;;7.10;79.40;;;;;;5112520;28;20007;-70
2023/11/13 00:32:36;;;;;;;;;;;7.10;79.20;;;;;;5113168;28;19915;-70
2023/11/13 00:35:02;;;;;;;;;;;7.10;79.30;;;;;;5112627;28;20326;-70
2023/11/13 00:37:27;;;;;;;;;;;7.10;79.10;;;;;;5114496;28;19920;-70
2023/11/13 00:39:53;;;;;;;;;;;7.20;79.10;;;;;;5113872;28;19922;-68
2023/11/13 00:42:20;;;;;;;;;;;7.20;79.00;;;;;;5112218;28;19919;-68
2023/11/13 00:44:46;;;;;;;;;;;7.30;78.90;;;;;;5113864;28;19911;-69
2023/11/13 00:47:12;;;;;;;;;;;7.20;78.80;;;;;;5114110;28;20312;-68
2023/11/13 00:49:38;;;;;;;;;;;7.20;78.80;;;;;;5113918;28;19915;-68
2023/11/13 00:52:04;;;;;;;;;;;7.10;79.10;;;;;;5111766;28;19927;-68
2023/11/13 00:54:30;;;;;;;;;;;7.10;78.50;;;;;;5113759;28;19994;-68
2023/11/13 00:56:56;;;;;;;;;;;7.10;79.10;;;;;;5112568;28;19926;-68
2023/11/13 00:59:23;;;;;;;;;;;7.10;79.00;;;;;;5112451;28;19943;-68
2023/11/13 01:01:48;;;;;;;;;;;7.10;79.00;;;;;;5111846;28;19963;-70
2023/11/13 01:04:15;;;;;;;;;;;7.10;79.00;;;;;;5112261;28;19916;-69
2023/11/13 01:06:41;;;;;;;;;;;7.10;78.90;;;;;;5095446;28;20308;-69
2023/11/13 01:09:11;;;;;;;;;;;7.10;79.00;;;;;;5112322;28;19926;-70
2023/11/13 01:11:37;;;;;;;;;;;7.10;79.10;;;;;;5113213;28;19981;-70
2023/11/13 01:14:04;;;;;;;;;;;7.10;78.80;;;;;;5112172;28;19968;-70
2023/11/13 01:16:29;;;;;;;;;;;7.10;78.30;;;;;;5112387;28;19926;-69
2023/11/13 01:18:55;;;;;;;;;;;7.20;78.70;;;;;;5113828;28;19911;-69
2023/11/13 01:21:22;;;;;;;;;;;7.20;78.50;;;;;;5112814;28;20387;-70
2023/11/13 01:23:48;;;;;;;;;;;7.20;78.30;;;;;;5112172;28;19915;-68
2023/11/13 01:26:14;;;;;;;;;;;7.20;78.30;;;;;;5111966;28;19919;-68
2023/11/13 01:28:40;;;;;;;;;;;7.20;78.30;;;;;;5113348;28;19915;-68
2023/11/13 01:31:07;;;;;;;;;;;7.20;77.70;;;;;;5111702;28;19915;-68
2023/11/13 01:33:33;;;;;;;;;;;7.20;78.40;;;;;;5095087;28;19915;-68
2023/11/13 01:35:59;;;;;;;;;;;7.30;78.40;;;;;;5112013;28;19961;-68
2023/11/13 01:38:26;;;;;;;;;;;7.20;78.30;;;;;;5094796;28;20034;-68
2023/11/13 01:40:52;;;;;;;;;;;7.20;77.70;;;;;;5111217;28;20284;-69
2023/11/13 01:43:19;;;;;;;;;;;7.20;78.40;;;;;;5111888;28;19915;-70
2023/11/13 01:45:46;;;;;;;;;;;7.20;78.20;;;;;;5111997;28;19916;-69
2023/11/13 01:48:13;;;;;;;;;;;7.20;78.20;;;;;;5115020;28;19998;-68
2023/11/13 01:50:39;;;;;;;;;;;7.20;78.30;;;;;;5116628;28;19915;-68
2023/11/13 01:53:06;;;;;;;;;;;7.20;78.60;;;;;;5117098;28;20270;-68
2023/11/13 01:55:32;;;;;;;;;;;7.10;78.50;;;;;;5115968;28;19918;-70
2023/11/13 01:57:58;;;;;;;;;;;7.10;78.20;;;;;;5116102;28;19926;-69
2023/11/13 02:00:24;;;;;;;;;;;7.00;78.80;;;;;;5115314;28;20706;-68
2023/11/13 02:02:50;;;;;;;;;;;7.00;79.00;;;;;;5115735;28;19930;-69
2023/11/13 02:05:16;;;;;;;;;;;6.90;79.10;;;;;;5115702;28;19937;-68
2023/11/13 02:07:42;;;;;;;;;;;6.80;78.70;;;;;;5098871;28;19916;-69
2023/11/13 02:10:09;;;;;;;;;;;6.80;79.30;;;;;;5116275;27;19927;-70
2023/11/13 02:12:35;;;;;;;;;;;6.70;79.40;;;;;;5117411;27;19926;-70
2023/11/13 02:15:02;;;;;;;;;;;6.60;79.50;;;;;;5115611;28;19916;-69
2023/11/13 02:17:28;;;;;;;;;;;6.60;79.50;;;;;;5098593;28;19920;-68
2023/11/13 02:19:54;;;;;;;;;;;6.50;79.80;;;;;;5115446;28;20558;-69
2023/11/13 02:22:20;;;;;;;;;;;6.40;79.50;;;;;;5115052;28;19919;-69
2023/11/13 02:24:46;;;;;;;;;;;6.40;79.50;;;;;;5116814;27;20417;-68
2023/11/13 02:27:12;;;;;;;;;;;6.30;79.70;;;;;;5097961;28;19920;-68
2023/11/13 02:29:38;;;;;;;;;;;6.30;79.70;;;;;;5098399;28;20045;-68
2023/11/13 02:32:04;;;;;;;;;;;6.30;79.60;;;;;;5116186;28;19930;-68
2023/11/13 02:34:30;;;;;;;;;;;6.20;79.30;;;;;;5115122;28;19912;-68
2023/11/13 02:36:56;;;;;;;;;;;6.30;79.40;;;;;;5116682;28;19926;-70
2023/11/13 02:39:22;;;;;;;;;;;6.30;79.40;;;;;;5115080;28;20002;-68
2023/11/13 02:41:48;;;;;;;;;;;6.30;79.30;;;;;;5115932;28;19927;-70
2023/11/13 02:44:15;;;;;;;;;;;6.20;79.50;;;;;;5115052;28;20006;-68
2023/11/13 02:46:41;;;;;;;;;;;6.30;79.90;;;;;;5115142;28;19920;-69
2023/11/13 02:49:07;;;;;;;;;;;6.30;79.70;;;;;;5116151;28;19912;-70
2023/11/13 02:51:33;;;;;;;;;;;6.30;79.60;;;;;;5115615;28;20360;-70
2023/11/13 02:53:59;;;;;;;;;;;6.30;79.50;;;;;;5114794;28;19916;-68
2023/11/13 02:56:25;;;;;;;;;;;6.20;79.10;;;;;;5097710;28;20262;-68
2023/11/13 02:58:52;;;;;;;;;;;6.20;79.80;;;;;;5114554;28;19918;-68
2023/11/13 03:01:18;;;;;;;;;;;6.20;79.30;;;;;;5115477;28;19926;-70
2023/11/13 03:03:44;;;;;;;;;;;6.10;79.90;;;;;;5114810;28;19915;-68
2023/11/13 03:06:12;;;;;;;;;;;6.00;79.80;;;;;;5115893;28;19924;-68
2023/11/13 03:08:40;;;;;;;;;;;6.00;80.10;;;;;;5114430;28;20306;-68
2023/11/13 03:11:06;;;;;;;;;;;6.00;80.10;;;;;;5097047;28;19973;-68
2023/11/13 03:13:32;;;;;;;;;;;6.00;80.20;;;;;;5114450;28;20408;-68
2023/11/13 03:15:58;;;;;;;;;;;5.90;80.20;;;;;;5114494;28;19926;-68
2023/11/13 03:18:24;;;;;;;;;;;5.90;80.20;;;;;;5114322;28;19912;-70
2023/11/13 03:20:50;;;;;;;;;;;5.80;80.20;;;;;;5114795;28;19973;-68
2023/11/13 03:23:16;;;;;;;;;;;5.80;80.10;;;;;;5115524;28;19915;-68
2023/11/13 03:25:42;;;;;;;;;;;5.80;80.20;;;;;;5115477;28;19918;-68
2023/11/13 03:28:08;;;;;;;;;;;5.70;80.10;;;;;;5115355;28;20002;-69
2023/11/13 03:33:21;;;;;;;;;;;5.70;80.30;;;;;;5115183;28;19970;-68
2023/11/13 03:35:47;;;;;;;;;;;5.60;80.10;;;;;;5097164;28;19912;-69
2023/11/13 03:38:12;;;;;;;;;;;5.60;80.10;;;;;;5114045;28;19954;-70
2023/11/13 03:40:38;;;;;;;;;;;5.50;80.20;;;;;;5113242;28;19916;-70
2023/11/13 03:43:04;;;;;;;;;;;5.50;80.20;;;;;;5114017;28;20369;-69
2023/11/13 03:45:30;;;;;;;;;;;5.40;80.10;;;;;;5113739;28;19918;-68
2023/11/13 03:47:56;;;;;;;;;;;5.40;80.00;;;;;;5114954;28;20010;-68
2023/11/13 03:50:22;;;;;;;;;;;5.40;80.10;;;;;;5114460;28;19999;-69
2023/11/13 03:52:48;;;;;;;;;;;5.40;79.90;;;;;;5115315;28;19911;-69
2023/11/13 03:55:14;;;;;;;;;;;5.30;79.40;;;;;;5114998;28;20006;-69
2023/11/13 03:57:40;;;;;;;;;;;5.30;80.50;;;;;;5113894;28;19915;-68
2023/11/13 04:00:07;;;;;;;;;;;5.30;79.60;;;;;;5114663;28;19916;-69
2023/11/13 04:02:33;;;;;;;;;;;5.30;79.60;;;;;;5115057;28;19923;-68
2023/11/13 04:04:59;;;;;;;;;;;5.30;79.50;;;;;;5114775;28;19915;-69
2023/11/13 04:07:25;;;;;;;;;;;5.40;79.50;;;;;;5114843;28;19964;-69
2023/11/13 04:09:51;;;;;;;;;;;5.30;79.40;;;;;;5113750;28;20006;-69
2023/11/13 04:12:17;;;;;;;;;;;5.40;79.20;;;;;;5114416;28;19971;-70
2023/11/13 04:14:43;;;;;;;;;;;5.30;79.20;;;;;;5114709;28;19912;-69
2023/11/13 04:17:09;;;;;;;;;;;5.20;79.00;;;;;;5096277;28;19926;-68
2023/11/13 04:19:35;;;;;;;;;;;5.20;79.40;;;;;;5096224;28;19915;-69
2023/11/13 04:22:00;;;;;;;;;;;5.20;79.30;;;;;;5112509;28;19999;-68
2023/11/13 04:24:26;;;;;;;;;;;5.20;79.40;;;;;;5113327;28;19911;-69
2023/11/13 04:26:53;;;;;;;;;;;5.20;79.50;;;;;;5114314;28;20019;-68
2023/11/13 04:29:19;;;;;;;;;;;5.20;79.50;;;;;;5114317;28;20457;-69
2023/11/13 04:31:45;;;;;;;;;;;5.20;79.30;;;;;;5113821;28;19930;-68
2023/11/13 04:34:12;;;;;;;;;;;5.20;79.40;;;;;;5114192;28;19980;-68
2023/11/13 04:36:57;;;;;;;;;;;5.20;79.40;;;;;;5095745;28;20403;-69
2023/11/13 04:39:23;;;;;;;;;;;5.30;79.30;;;;;;5112733;28;19912;-68
2023/11/13 04:41:49;;;;;;;;;;;5.30;79.50;;;;;;5113772;28;19919;-68
2023/11/13 04:44:15;;;;;;;;;;;5.30;79.60;;;;;;5114076;28;20002;-68
2023/11/13 04:46:41;;;;;;;;;;;5.30;79.60;;;;;;5113709;28;20014;-69
2023/11/13 04:49:07;;;;;;;;;;;5.30;79.50;;;;;;5112604;28;20436;-68
2023/11/13 04:51:34;;;;;;;;;;;5.30;79.10;;;;;;5113246;27;20269;-70
2023/11/13 04:54:00;;;;;;;;;;;5.30;79.70;;;;;;5113786;28;19915;-68
2023/11/13 04:56:26;;;;;;;;;;;5.30;80.00;;;;;;5114071;28;20006;-69
2023/11/13 04:58:52;;;;;;;;;;;5.30;80.10;;;;;;5112705;28;20209;-69
2023/11/13 05:01:19;;;;;;;;;;;5.40;80.00;;;;;;5112012;28;20006;-69
2023/11/13 05:03:45;;;;;;;;;;;5.30;79.90;;;;;;5112491;28;19919;-70
2023/11/13 05:06:30;;;;;;;;;;;5.40;79.90;;;;;;5113748;28;19919;-70
2023/11/13 05:08:55;;;;;;;;;;;5.40;79.90;;;;;;5112229;28;19922;-68
2023/11/13 05:11:40;;;;;;;;;;;5.30;80.30;;;;;;5113031;28;19919;-69
2023/11/13 05:14:06;;;;;;;;;;;5.30;80.10;;;;;;5095293;28;19918;-70
2023/11/13 05:16:32;;;;;;;;;;;5.20;80.30;;;;;;5113640;28;20369;-69
2023/11/13 05:18:58;;;;;;;;;;;5.20;80.50;;;;;;5113556;28;19912;-70
2023/11/13 05:21:24;;;;;;;;;;;5.20;80.50;;;;;;5112743;28;19955;-69
2023/11/13 05:23:50;;;;;;;;;;;5.20;80.40;;;;;;5113375;28;19919;-69
2023/11/13 05:26:18;;;;;;;;;;;5.20;80.40;;;;;;5111879;28;20022;-68
2023/11/13 05:28:45;;;;;;;;;;;5.10;80.20;;;;;;5112023;28;19916;-70
2023/11/13 05:31:10;;;;;;;;;;;5.10;80.20;;;;;;5113048;28;19926;-68
2023/11/13 05:33:36;;;;;;;;;;;5.10;80.40;;;;;;5111943;28;20365;-69
2023/11/13 05:36:02;;;;;;;;;;;5.20;80.30;;;;;;5112043;28;19923;-68
2023/11/13 05:38:28;;;;;;;;;;;5.20;80.20;;;;;;5112047;28;19985;-68
2023/11/13 05:40:54;;;;;;;;;;;5.10;80.00;;;;;;5112908;28;19920;-70
2023/11/13 05:43:20;;;;;;;;;;;5.00;80.20;;;;;;5111934;28;20006;-70
2023/11/13 05:45:46;;;;;;;;;;;5.00;80.30;;;;;;5111967;28;19924;-68
2023/11/13 05:48:12;;;;;;;;;;;5.00;80.30;;;;;;5113237;28;19984;-69
2023/11/13 05:50:38;;;;;;;;;;;5.00;80.30;;;;;;5111119;28;20495;-68
2023/11/13 05:53:04;;;;;;;;;;;5.00;80.00;;;;;;5112871;28;19922;-68
2023/11/13 05:55:30;;;;;;;;;;;5.00;80.10;;;;;;5111792;28;20321;-69
2023/11/13 05:57:56;;;;;;;;;;;5.00;80.00;;;;;;5111961;28;20341;-69
2023/11/13 06:00:22;;;;;;;;;;;4.90;80.00;;;;;;5112507;28;19922;-69
2023/11/13 06:02:48;;;;;;;;;;;5.00;79.80;;;;;;5111862;28;19916;-69
2023/11/13 06:05:16;;;;;;;;;;;4.90;79.20;;;;;;5111649;28;20310;-69
2023/11/13 06:07:43;;;;;;;;;;;4.90;79.60;;;;;;5111914;28;19923;-68
2023/11/13 06:10:10;;;;;;;;;;;5.00;79.00;;;;;;5112134;28;19955;-68
2023/11/13 06:12:40;;;;;;;;;;;5.00;79.40;;;;;;5111836;28;19916;-68
2023/11/13 06:15:25;;;;;;;;;;;5.00;79.00;;;;;;5111723;28;20425;-69
2023/11/13 06:17:50;;;;;;;;;;;5.00;78.90;;;;;;5113057;28;19920;-69
2023/11/13 06:20:19;;;;;;;;;;;5.00;78.90;;;;;;5112258;28;20368;-70
2023/11/13 06:22:47;;;;;;;;;;;5.10;79.20;;;;;;5113091;28;19920;-68
2023/11/13 06:25:13;;;;;;;;;;;5.10;79.30;;;;;;5112867;28;19945;-69
2023/11/13 06:27:40;;;;;;;;;;;5.10;79.20;;;;;;5111717;28;19915;-67
2023/11/13 06:30:09;;;;;;;;;;;5.10;78.90;;;;;;5110964;28;20019;-69
2023/11/13 06:32:36;;;;;;;;;;;5.10;78.80;;;;;;5112842;28;19955;-70
2023/11/13 06:35:02;;;;;;;;;;;5.10;78.90;;;;;;5116647;28;20295;-69
2023/11/13 06:37:28;;;;;;;;;;;5.00;78.90;;;;;;5098240;28;20716;-69
2023/11/13 06:39:54;;;;;;;;;;;5.00;78.90;;;;;;5116192;28;20297;-69
2023/11/13 06:42:20;;;;;;;;;;;5.00;79.00;;;;;;5097638;28;19926;-69
2023/11/13 06:44:45;;;;;;;;;;;5.10;79.10;;;;;;5116390;28;20381;-67
2023/11/13 06:47:11;;;;;;;;;;;5.10;78.80;;;;;;5116411;27;20292;-69
2023/11/13 06:49:38;;;;;;;;;;;5.20;78.80;;;;;;5116244;28;20399;-69
2023/11/13 06:52:27;;;;;;;;;;;5.30;78.80;;;;;;5116031;27;20304;-69
2023/11/13 06:54:58;;;;;;;;;;;5.40;78.50;;;;;;5116244;28;20373;-69
2023/11/13 06:57:27;;;;;;;;;;;5.40;78.40;;;;;;5116264;28;19923;-70
2023/11/13 06:59:53;;;;;;;;;;;5.50;78.30;;;;;;5116197;27;20304;-69
2023/11/13 07:02:21;;;;;;;;;;;5.50;78.30;;;;;;5097223;28;19934;-69
2023/11/13 07:04:47;;;;;;;;;;;5.50;78.20;;;;;;5115848;28;19912;-70
2023/11/13 07:07:13;;;;;;;;;;;5.60;78.20;;;;;;5114661;28;19919;-69
2023/11/13 07:09:40;;;;;;;;;;;5.60;78.20;;;;;;5115823;28;19945;-68
2023/11/13 07:12:07;;;;;;;;;;;5.70;78.10;;;;;;5115614;28;19972;-70
2023/11/13 07:14:34;;;;;;;;;;;5.70;77.30;;;;;;5115615;28;20388;-70
2023/11/13 07:17:00;;;;;;;;;;;5.70;77.50;;;;;;5114527;28;19920;-70
2023/11/13 07:19:26;;;;;;;;;;;5.70;77.60;;;;;;5114398;28;20010;-68
2023/11/13 07:21:52;;;;;;;;;;;5.70;77.50;;;;;;5113888;28;19942;-69
2023/11/13 07:24:18;;;;;;;;;;;5.80;77.40;;;;;;5115550;28;19935;-68
2023/11/13 07:26:44;;;;;;;;;;;5.80;76.70;;;;;;5115531;28;19923;-70
2023/11/13 07:29:11;;;;;;;;;;;5.90;77.20;;;;;;5115613;28;19915;-68
2023/11/13 07:31:37;;;;;;;;;;;6.10;77.10;;;;;;5096715;28;20373;-69
2023/11/13 07:34:03;;;;;;;;;;;6.10;77.00;;;;;;5114164;28;19922;-69
2023/11/13 07:36:31;;;;;;;;;;;6.20;76.80;;;;;;5097096;28;19922;-69
2023/11/13 07:38:58;;;;;;;;;;;6.20;76.60;;;;;;5113861;28;19969;-68
2023/11/13 07:41:24;;;;;;;;;;;6.30;77.30;;;;;;5114965;28;19915;-68
2023/11/13 07:43:50;;;;;;;;;;;6.30;76.50;;;;;;5113555;28;19915;-68
2023/11/13 07:46:17;;;;;;;;;;;6.30;76.30;;;;;;5114549;28;20348;-69
2023/11/13 07:48:44;;;;;;;;;;;6.30;76.20;;;;;;5114934;28;19961;-68
2023/11/13 07:51:10;;;;;;;;;;;6.40;76.20;;;;;;5096298;28;19915;-68
2023/11/13 07:53:36;;;;;;;;;;;6.50;76.20;;;;;;5114744;28;20377;-68
2023/11/13 07:56:03;;;;;;;;;;;6.50;75.80;;;;;;5113891;28;19926;-68
2023/11/13 07:58:29;;;;;;;;;;;6.50;75.40;;;;;;5114872;28;19919;-69
2023/11/13 08:00:55;;;;;;;;;;;6.60;75.10;;;;;;5096049;28;19962;-70
2023/11/13 08:03:22;;;;;;;;;;;6.70;75.40;;;;;;5113401;28;19912;-69
2023/11/13 08:05:48;;;;;;;;;;;6.70;75.20;;;;;;5113541;28;19923;-70
2023/11/13 08:08:16;;;;;;;;;;;6.70;74.90;;;;;;5113293;28;19912;-68
2023/11/13 08:11:02;;;;;;;;;;;6.70;75.50;;;;;;5112757;28;20343;-68
2023/11/13 08:13:28;;;;;;;;;;;6.80;75.70;;;;;;5114423;28;19924;-70
2023/11/13 08:15:54;;;;;;;;;;;6.90;75.70;;;;;;5114641;28;19957;-68
2023/11/13 08:18:22;;;;;;;;;;;7.00;75.70;;;;;;5114385;28;20426;-68
2023/11/13 08:20:48;;;;;;;;;;;7.10;75.50;;;;;;5112593;28;19923;-68
2023/11/13 08:23:15;;;;;;;;;;;7.20;75.30;;;;;;5096093;28;20292;-69
2023/11/13 08:25:42;;;;;;;;;;;7.30;75.00;;;;;;5113035;28;20429;-70
2023/11/13 08:28:09;;;;;;;;;;;7.40;74.70;;;;;;5095889;28;19916;-68
2023/11/13 08:30:36;;;;;;;;;;;7.40;74.60;;;;;;5113673;28;19916;-70
2023/11/13 08:33:03;;;;;;;;;;;7.60;74.40;;;;;;5113102;28;19961;-68
2023/11/13 08:35:31;;;;;;;;;;;7.70;74.20;;;;;;5112842;28;19916;-70
2023/11/13 08:37:58;;;;;;;;;;;8.00;73.20;;;;;;5112879;28;19924;-70
2023/11/13 08:40:23;;;;;;;;;;;8.50;72.60;;;;;;5113434;28;20365;-70
2023/11/13 08:42:50;;;;;;;;;;;8.80;71.90;;;;;;5114073;28;19927;-68
2023/11/13 08:45:16;;;;;;;;;;;8.80;71.80;;;;;;5112677;28;19912;-68
2023/11/13 08:47:43;;;;;;;;;;;8.90;72.10;;;;;;5114341;28;19919;-70
2023/11/13 08:50:11;;;;;;;;;;;9.20;71.40;;;;;;5094942;28;20007;-68
2023/11/13 08:52:40;;;;;;;;;;;9.20;70.90;;;;;;5114035;28;19939;-69
2023/11/13 08:57:54;;;;;;;;;;;9.90;69.30;;;;;;5113861;28;19926;-69
2023/11/13 09:00:21;;;;;;;;;;;10.90;67.80;;;;;;5111821;28;19911;-70
2023/11/13 09:03:08;;;;;;;;;;;11.80;65.00;;;;;;5112769;28;19919;-68
2023/11/13 09:05:35;;;;;;;;;;;12.00;62.90;;;;;;5113601;28;19916;-69
2023/11/13 09:10:45;;;;;;;;;;;11.70;65.20;;;;;;5113039;27;20326;-70
2023/11/13 09:13:11;;;;;;;;;;;11.90;65.40;;;;;;5094940;28;19912;-69
2023/11/13 09:15:39;;;;;;;;;;;12.10;65.70;;;;;;5111982;28;20317;-69
2023/11/13 09:18:05;;;;;;;;;;;12.20;65.00;;;;;;5113134;28;19915;-70
2023/11/13 09:20:50;;;;;;;;;;;12.40;64.60;;;;;;5111769;28;20384;-69
2023/11/13 09:23:17;;;;;;;;;;;12.20;64.20;;;;;;5111989;28;19922;-70
2023/11/13 09:25:43;;;;;;;;;;;12.00;65.20;;;;;;5112085;28;19981;-70
2023/11/13 09:28:08;;;;;;;;;;;12.00;65.00;;;;;;5112041;28;19916;-69
2023/11/13 09:30:35;;;;;;;;;;;11.90;65.60;;;;;;5112819;28;19919;-68
2023/11/13 09:35:48;;;;;;;;;;;11.80;65.70;;;;;;5112419;28;19923;-68
2023/11/13 09:38:13;;;;;;;;;;;11.60;66.40;;;;;;5095209;28;20163;-68
2023/11/13 09:40:39;;;;;;;;;;;11.60;66.90;;;;;;5111372;28;20269;-69
2023/11/13 09:43:24;;;;;;;;;;;11.60;66.90;;;;;;5111894;28;19927;-68
2023/11/13 09:45:51;;;;;;;;;;;11.70;66.60;;;;;;5113410;28;19912;-70
2023/11/13 09:48:25;;;;;;;;;;;11.70;66.60;;;;;;5112928;28;19920;-69
2023/11/13 09:50:51;;;;;;;;;;;11.70;66.50;;;;;;5112567;28;20333;-70
2023/11/13 09:53:20;;;;;;;;;;;11.90;65.90;;;;;;5111584;28;20420;-68
2023/11/13 09:55:46;;;;;;;;;;;11.90;66.20;;;;;;5112033;28;19927;-70
2023/11/13 09:58:12;;;;;;;;;;;12.00;66.00;;;;;;5094873;28;19941;-69
2023/11/13 10:00:40;;;;;;;;;;;12.10;66.10;;;;;;5111155;28;20007;-70
2023/11/13 10:03:08;;;;;;;;;;;12.10;66.30;;;;;;5111835;28;19916;-69
2023/11/13 10:05:35;;;;;;;;;;;12.10;66.20;;;;;;5112920;28;19911;-68
2023/11/13 10:08:02;;;;;;;;;;;12.20;66.00;;;;;;5113016;28;19916;-70
2023/11/13 10:10:29;;;;;;;;;;;12.40;66.20;;;;;;5114959;28;19924;-70
2023/11/13 10:12:56;;;;;;;;;;;12.90;64.20;;;;;;5115791;28;19938;-69
2023/11/13 10:18:26;;;;;;;;;;;13.10;63.30;;;;;;5115726;28;20000;-68
2023/11/13 10:20:52;;;;;;;;;;;13.20;63.50;;;;;;5114988;28;19966;-70
2023/11/13 10:23:19;;;;;;;;;;;13.40;63.50;;;;;;5116566;28;19912;-70
2023/11/13 10:25:50;;;;;;;;;;;13.40;63.20;;;;;;5116719;28;20422;-70
2023/11/13 10:31:04;;;;;;;;;;;14.20;60.90;;;;;;5115008;28;19946;-70
2023/11/13 10:33:30;;;;;;;;;;;14.60;59.90;;;;;;5116313;28;19919;-70
2023/11/13 10:36:04;;;;;;;;;;;14.90;59.60;;;;;;5115134;28;20356;-68
2023/11/13 10:38:43;;;;;;;;;;;15.20;59.10;;;;;;5099099;28;19912;-69
2023/11/13 10:41:12;;;;;;;;;;;15.40;58.00;;;;;;5114574;28;20377;-69
2023/11/13 10:46:42;;;;;;;;;;;15.80;57.50;;;;;;5116680;28;19964;-70
2023/11/13 10:49:12;;;;;;;;;;;16.00;57.00;;;;;;5115054;28;19965;-70
2023/11/13 10:51:40;;;;;;;;;;;16.10;56.20;;;;;;5115848;28;19920;-70
2023/11/13 10:54:08;;;;;;;;;;;16.20;55.10;;;;;;5114861;28;19916;-70
2023/11/13 10:56:34;;;;;;;;;;;16.00;55.10;;;;;;5097984;28;19981;-69
2023/11/13 10:59:02;;;;;;;;;;;15.80;54.90;;;;;;5097914;28;19949;-69
2023/11/13 11:01:29;;;;;;;;;;;15.70;54.60;;;;;;5114195;28;20325;-70
2023/11/13 11:03:58;;;;;;;;;;;15.60;53.70;;;;;;5116018;28;20369;-68
2023/11/13 11:06:29;;;;;;;;;;;15.40;54.10;;;;;;5097631;28;20826;-69
2023/11/13 11:08:55;;;;;;;;;;;15.60;55.10;;;;;;5114780;28;19916;-69
2023/11/13 11:11:25;;;;;;;;;;;15.60;54.40;;;;;;5113850;28;19920;-69
2023/11/13 11:14:13;;;;;;;;;;;15.80;54.60;;;;;;5114723;28;19978;-68
2023/11/13 11:16:43;;;;;;;;;;;15.90;54.50;;;;;;5116019;28;20292;-69
2023/11/13 11:19:18;;;;;;;;;;;16.20;53.20;;;;;;5114221;28;19912;-70
2023/11/13 11:22:04;;;;;;;;;;;16.40;51.90;;;;;;5113947;28;20351;-70
2023/11/13 11:25:32;;;;;;;;;;;16.60;51.30;;;;;;5115582;28;19957;-69
2023/11/13 11:27:58;;;;;;;;;;;16.80;50.30;;;;;;5114407;28;19927;-70
2023/11/13 11:30:24;;;;;;;;;;;17.20;49.00;;;;;;5113796;28;20392;-69
2023/11/13 11:32:55;;;;;;;;;;;17.50;49.70;;;;;;5115455;28;19958;-70
2023/11/13 11:35:22;;;;;;;;;;;17.40;48.80;;;;;;5115274;28;20383;-70
2023/11/13 11:38:29;;;;;;;;;;;17.30;48.50;;;;;;5115709;28;19969;-70
2023/11/13 11:40:58;;;;;;;;;;;17.30;48.10;;;;;;5114551;28;19924;-70
2023/11/13 11:43:43;;;;;;;;;;;17.30;49.10;;;;;;5114161;28;19912;-70
2023/11/13 11:46:09;;;;;;;;;;;17.40;48.30;;;;;;5115277;28;19923;-70
2023/11/13 11:48:35;;;;;;;;;;;17.70;47.20;;;;;;5113842;28;19994;-70
2023/11/13 11:51:17;;;;;;;;;;;17.70;46.40;;;;;;5113346;28;20380;-69
2023/11/13 11:54:03;;;;;;;;;;;17.80;47.90;;;;;;5113650;28;19916;-69
2023/11/13 11:56:29;;;;;;;;;;;17.80;47.20;;;;;;5115102;28;19966;-69
2023/11/13 11:58:56;;;;;;;;;;;17.70;46.40;;;;;;5113741;28;20010;-70
2023/11/13 12:01:22;;;;;;;;;;;17.60;47.20;;;;;;5113173;28;19927;-69
2023/11/13 12:03:47;;;;;;;;;;;17.50;47.20;;;;;;5113689;28;20380;-69
2023/11/13 12:06:14;;;;;;;;;;;17.70;46.90;;;;;;5114913;28;20299;-70
2023/11/13 12:08:41;;;;;;;;;;;17.70;46.60;;;;;;5113401;28;19915;-70
2023/11/13 12:11:07;;;;;;;;;;;17.70;46.40;;;;;;5095953;28;19924;-69
2023/11/13 12:13:33;;;;;;;;;;;17.70;46.40;;;;;;5113302;28;19916;-69
2023/11/13 12:16:00;;;;;;;;;;;17.70;46.70;;;;;;5114549;28;19920;-70
2023/11/13 12:18:26;;;;;;;;;;;17.70;46.40;;;;;;5114406;28;19922;-70
2023/11/13 12:20:54;;;;;;;;;;;17.60;46.80;;;;;;5112525;28;19919;-69
2023/11/13 12:23:20;;;;;;;;;;;17.50;46.90;;;;;;5114223;28;19958;-70
2023/11/13 12:25:46;;;;;;;;;;;17.60;47.10;;;;;;5114393;28;19927;-69
2023/11/13 12:28:12;;;;;;;;;;;17.90;46.40;;;;;;5114245;28;19911;-70
2023/11/13 12:30:38;;;;;;;;;;;18.00;45.90;;;;;;5111996;28;19922;-70
2023/11/13 12:33:04;;;;;;;;;;;18.20;45.80;;;;;;5113045;28;19916;-69
2023/11/13 12:38:15;;;;;;;;;;;18.40;45.80;;;;;;5113193;28;20023;-69
2023/11/13 12:40:41;;;;;;;;;;;18.50;45.70;;;;;;5112218;28;19919;-70
2023/11/13 12:43:07;;;;;;;;;;;18.50;45.60;;;;;;5111513;28;20041;-69
2023/11/13 12:45:33;;;;;;;;;;;18.30;46.40;;;;;;5112742;28;19942;-70
2023/11/13 12:48:01;;;;;;;;;;;18.10;47.00;;;;;;5113664;28;20307;-69
2023/11/13 12:50:27;;;;;;;;;;;17.90;47.10;;;;;;5113191;28;20257;-70
2023/11/13 12:52:54;;;;;;;;;;;17.60;47.20;;;;;;5112454;28;19965;-69
2023/11/13 12:55:21;;;;;;;;;;;17.60;47.50;;;;;;5112155;28;20014;-69
2023/11/13 12:58:08;;;;;;;;;;;17.40;48.10;;;;;;5114399;28;19983;-68
2023/11/13 13:00:35;;;;;;;;;;;17.20;49.10;;;;;;5113218;28;19919;-70
2023/11/13 13:03:01;;;;;;;;;;;17.10;49.60;;;;;;5112546;28;19955;-69
2023/11/13 13:05:28;;;;;;;;;;;17.00;50.50;;;;;;5112356;28;20326;-69
2023/11/13 13:07:54;;;;;;;;;;;16.80;50.50;;;;;;5095517;28;20049;-69
2023/11/13 13:10:23;;;;;;;;;;;16.70;50.90;;;;;;5111685;28;20002;-70
2023/11/13 13:12:50;;;;;;;;;;;16.60;51.40;;;;;;5113913;28;20330;-70
2023/11/13 13:15:16;;;;;;;;;;;16.50;51.50;;;;;;5095472;28;19916;-69
2023/11/13 13:17:43;;;;;;;;;;;16.40;51.60;;;;;;5114033;28;20284;-70
2023/11/13 13:20:18;;;;;;;;;;;16.40;51.80;;;;;;5111710;28;19947;-70
2023/11/13 13:25:35;;;;;;;;;;;16.20;52.50;;;;;;5112386;28;20384;-69
2023/11/13 13:28:20;;;;;;;;;;;16.10;52.70;;;;;;5095646;28;19919;-70
2023/11/13 13:30:49;;;;;;;;;;;16.00;52.40;;;;;;5112759;28;20010;-70
2023/11/13 13:33:16;;;;;;;;;;;16.10;52.90;;;;;;5113390;28;19919;-70
2023/11/13 13:35:44;;;;;;;;;;;16.10;53.00;;;;;;5095299;28;19918;-69
2023/11/13 13:38:10;;;;;;;;;;;16.10;52.70;;;;;;5112255;28;19923;-70
2023/11/13 13:43:22;;;;;;;;;;;16.20;52.30;;;;;;5114924;28;19926;-69
2023/11/13 13:45:50;;;;;;;;;;;16.30;52.50;;;;;;5117605;28;19911;-69
2023/11/13 13:48:16;;;;;;;;;;;16.30;52.50;;;;;;5116223;28;19924;-70
2023/11/13 13:50:42;;;;;;;;;;;16.30;52.50;;;;;;5115445;28;19922;-69
2023/11/13 13:53:08;;;;;;;;;;;16.40;52.30;;;;;;5117259;28;19920;-69
2023/11/13 13:55:34;;;;;;;;;;;16.30;52.50;;;;;;5116097;28;20006;-70
2023/11/13 14:00:48;;;;;;;;;;;16.30;52.90;;;;;;5115937;28;20175;-69
2023/11/13 14:03:13;;;;;;;;;;;16.20;52.90;;;;;;5117235;28;20340;-69
2023/11/13 14:05:41;;;;;;;;;;;16.10;53.40;;;;;;5117096;28;19922;-69
2023/11/13 14:08:09;;;;;;;;;;;15.90;53.60;;;;;;5115886;28;20291;-69
2023/11/13 14:10:35;;;;;;;;;;;15.80;53.60;;;;;;5116355;28;19922;-70
2023/11/13 14:13:04;;;;;;;;;;;15.70;54.00;;;;;;5117088;28;20288;-68
2023/11/13 14:15:49;;;;;;;;;;;15.60;54.20;;;;;;5115606;28;19965;-69
2023/11/13 14:18:16;;;;;;;;;;;15.50;54.60;;;;;;5098654;28;19970;-69
2023/11/13 14:20:43;;;;;;;;;;;15.50;54.70;;;;;;5114968;28;19995;-70
2023/11/13 14:25:55;;;;;;;;;;;15.20;54.40;;;;;;5115689;28;19915;-69
2023/11/13 14:28:24;;;;;;;;;;;15.20;55.20;;;;;;5116564;28;19984;-70
2023/11/13 14:30:50;;;;;;;;;;;15.10;55.50;;;;;;5116345;28;19916;-69
2023/11/13 14:33:18;;;;;;;;;;;15.00;55.80;;;;;;5116512;28;20341;-69
2023/11/13 14:35:44;;;;;;;;;;;14.90;55.60;;;;;;5116743;28;19911;-70
2023/11/13 14:38:11;;;;;;;;;;;14.80;56.30;;;;;;5115228;28;20360;-70
2023/11/13 14:40:55;;;;;;;;;;;14.70;56.60;;;;;;5115693;28;19923;-70
2023/11/13 14:43:21;;;;;;;;;;;14.60;56.80;;;;;;5105838;28;19919;-69
2023/11/13 14:45:47;;;;;;;;;;;14.50;57.30;;;;;;5077455;28;19922;-70
2023/11/13 14:48:13;;;;;;;;;;;14.50;57.60;;;;;;5111637;28;19920;-69
2023/11/13 14:50:39;;;;;;;;;;;14.40;57.80;;;;;;5093686;28;20280;-68
2023/11/13 14:53:05;;;;;;;;;;;14.30;58.90;;;;;;5111270;28;20304;-69
2023/11/13 14:55:31;;;;;;;;;;;14.20;58.60;;;;;;5093958;28;19939;-70
2023/11/13 14:57:57;;;;;;;;;;;14.10;59.00;;;;;;5111488;28;20402;-70
2023/11/13 15:00:23;;;;;;;;;;;14.00;59.30;;;;;;5093702;28;19924;-70
2023/11/13 15:02:51;;;;;;;;;;;14.00;59.50;;;;;;5077536;28;20002;-69